createdAt,value
2016-07-03T00:00:41.182Z,97.51
2016-07-03T00:01:41.184Z,97.51
2016-07-03T00:02:41.175Z,97.7
2016-07-03T00:03:41.172Z,97.7
2016-07-03T00:04:41.171Z,97.89
2016-07-03T00:05:41.168Z,97.8
2016-07-03T00:06:41.161Z,97.99
2016-07-03T00:07:41.159Z,97.61
2016-07-03T00:08:41.255Z,97.99
2016-07-03T00:09:41.145Z,98.08
2016-07-03T00:10:41.151Z,97.99
2016-07-03T00:11:41.134Z,97.7
2016-07-03T00:12:41.143Z,97.99
2016-07-03T00:13:41.130Z,98.03
2016-07-03T00:14:41.121Z,97.75
2016-07-03T00:15:41.730Z,97.94
2016-07-03T00:16:41.110Z,98.32
2016-07-03T00:17:41.110Z,98.61
2016-07-03T00:18:41.108Z,98.13
2016-07-03T00:19:41.104Z,98.61
2016-07-03T00:20:41.098Z,98.51
2016-07-03T00:21:41.095Z,98.42
2016-07-03T00:22:41.094Z,98.61
2016-07-03T00:23:41.085Z,98.61
2016-07-03T00:24:41.091Z,98.51
2016-07-03T00:25:41.078Z,98.42
2016-07-03T00:26:41.067Z,98.22
2016-07-03T00:27:41.066Z,98.42
2016-07-03T00:28:41.063Z,98.03
2016-07-03T00:29:41.061Z,98.03
2016-07-03T00:30:41.212Z,98.22
2016-07-03T00:31:41.860Z,97.75
2016-07-03T00:32:41.659Z,97.75
2016-07-03T00:33:41.045Z,97.85
2016-07-03T00:34:41.043Z,97.51
2016-07-03T00:35:41.386Z,97.22
2016-07-03T00:36:41.034Z,97.13
2016-07-03T00:37:41.032Z,97.32
2016-07-03T00:38:41.028Z,97.51
2016-07-03T00:39:41.529Z,97.03
2016-07-03T00:40:41.418Z,97.42
2016-07-03T00:41:41.508Z,97.32
2016-07-03T00:42:41.016Z,96.84
2016-07-03T00:43:41.009Z,96.84
2016-07-03T00:44:41.000Z,97.03
2016-07-03T00:45:40.998Z,96.56
2016-07-03T00:46:41.044Z,96.75
2016-07-03T00:47:40.993Z,96.66
2016-07-03T00:48:40.990Z,96.75
2016-07-03T00:49:40.984Z,96.56
2016-07-03T00:50:40.982Z,96.42
2016-07-03T00:51:40.979Z,96.42
2016-07-03T00:52:40.974Z,96.75
2016-07-03T00:53:40.968Z,96.27
2016-07-03T00:54:40.956Z,96.03
2016-07-03T00:55:40.961Z,96.03
2016-07-03T00:56:40.960Z,96.32
2016-07-03T00:57:40.950Z,96.13
2016-07-03T00:58:41.303Z,95.46
2016-07-03T00:59:40.951Z,95.84
2016-07-03T01:00:41.299Z,95.94
2016-07-03T01:01:41.213Z,95.65
2016-07-03T01:02:40.940Z,95.65
2016-07-03T01:03:40.932Z,95.56
2016-07-03T01:04:40.927Z,95.27
2016-07-03T01:05:42.169Z,95.36
2016-07-03T01:06:41.520Z,95.08
2016-07-03T01:07:41.183Z,95.08
2016-07-03T01:08:41.054Z,94.79
2016-07-03T01:09:40.912Z,95.27
2016-07-03T01:10:40.907Z,94.41
2016-07-03T01:11:40.899Z,94.7
2016-07-03T01:12:40.892Z,94.6
2016-07-03T01:13:40.982Z,94.89
2016-07-03T01:14:40.884Z,94.89
2016-07-03T01:15:40.881Z,94.74
2016-07-03T01:16:40.884Z,94.7
2016-07-03T01:17:40.882Z,94.98
2016-07-03T01:18:40.880Z,94.6
2016-07-03T01:19:40.878Z,94.6
2016-07-03T01:20:40.872Z,94.6
2016-07-03T01:21:40.869Z,94.51
2016-07-03T01:22:40.865Z,94.03
2016-07-03T01:23:40.859Z,94.03
2016-07-03T01:24:40.858Z,94.12
2016-07-03T01:25:40.857Z,94.12
2016-07-03T01:26:40.851Z,94.03
2016-07-03T01:27:40.844Z,94.22
2016-07-03T01:28:40.838Z,94.17
2016-07-03T01:29:40.840Z,94.03
2016-07-03T01:30:40.832Z,93.98
2016-07-03T01:31:40.831Z,93.98
2016-07-03T01:32:40.829Z,94.07
2016-07-03T01:33:40.827Z,94.07
2016-07-03T01:34:40.820Z,94.07
2016-07-03T01:35:40.818Z,93.88
2016-07-03T01:36:40.805Z,93.79
2016-07-03T01:37:40.807Z,94.46
2016-07-03T01:38:40.807Z,94.65
2016-07-03T01:39:40.798Z,94.27
2016-07-03T01:40:40.798Z,94.36
2016-07-03T01:41:40.802Z,94.93
2016-07-03T01:42:40.794Z,94.65
2016-07-03T01:43:40.790Z,94.65
2016-07-03T01:44:40.782Z,94.7
2016-07-03T01:45:40.779Z,94.98
2016-07-03T01:46:40.774Z,94.89
2016-07-03T01:47:40.770Z,94.89
2016-07-03T01:48:55.659Z,94.7
2016-07-03T01:49:40.957Z,94.51
2016-07-03T01:50:40.756Z,94.6
2016-07-03T01:51:41.454Z,95.17
2016-07-03T01:52:40.753Z,94.89
2016-07-03T01:53:40.745Z,95.27
2016-07-03T01:54:40.891Z,94.98
2016-07-03T01:55:40.733Z,94.89
2016-07-03T01:56:40.728Z,94.79
2016-07-03T01:57:40.727Z,94.98
2016-07-03T01:58:41.271Z,94.93
2016-07-03T01:59:41.272Z,94.56
2016-07-03T02:00:41.221Z,95.22
2016-07-03T02:01:40.716Z,95.03
2016-07-03T02:02:40.714Z,94.93
2016-07-03T02:03:40.711Z,95.03
2016-07-03T02:04:40.706Z,94.93
2016-07-03T02:05:40.702Z,95.12
2016-07-03T02:06:40.691Z,95.03
2016-07-03T02:07:40.685Z,95.89
2016-07-03T02:08:40.685Z,95.61
2016-07-03T02:09:40.679Z,95.51
2016-07-03T02:10:40.678Z,95.79
2016-07-03T02:11:40.673Z,95.98
2016-07-03T02:12:40.669Z,95.61
2016-07-03T02:13:40.662Z,95.41
2016-07-03T02:14:40.659Z,95.7
2016-07-03T02:15:40.683Z,96.08
2016-07-03T02:16:41.110Z,95.89
2016-07-03T02:17:41.409Z,95.94
2016-07-03T02:18:41.277Z,95.94
2016-07-03T02:19:40.631Z,95.84
2016-07-03T02:20:40.626Z,95.94
2016-07-03T02:21:40.626Z,95.75
2016-07-03T02:22:40.616Z,95.65
2016-07-03T02:23:42.112Z,95.65
2016-07-03T02:24:40.613Z,96.22
2016-07-03T02:25:42.039Z,95.75
2016-07-03T02:26:40.602Z,95.94
2016-07-03T02:27:40.595Z,96.32
2016-07-03T02:28:41.439Z,96.6
2016-07-03T02:29:40.594Z,96.32
2016-07-03T02:30:40.594Z,96.22
2016-07-03T02:31:40.580Z,96.32
2016-07-03T02:32:40.567Z,96.51
2016-07-03T02:33:40.572Z,96.6
2016-07-03T02:34:40.565Z,96.6
2016-07-03T02:35:40.563Z,96.6
2016-07-03T02:36:40.555Z,96.6
2016-07-03T02:37:40.555Z,96.51
2016-07-03T02:38:40.548Z,96.32
2016-07-03T02:39:40.549Z,96.6
2016-07-03T02:40:40.538Z,96.51
2016-07-03T02:41:40.533Z,96.6
2016-07-03T02:42:40.532Z,96.41
2016-07-03T02:43:40.529Z,96.41
2016-07-03T02:44:40.523Z,96.89
2016-07-03T02:45:40.520Z,96.98
2016-07-03T02:46:40.513Z,96.98
2016-07-03T02:47:40.507Z,96.98
2016-07-03T02:48:40.505Z,96.89
2016-07-03T02:49:40.493Z,96.98
2016-07-03T02:50:40.494Z,96.75
2016-07-03T02:51:40.488Z,96.8
2016-07-03T02:52:40.480Z,96.75
2016-07-03T02:53:40.478Z,96.84
2016-07-03T02:54:40.475Z,96.55
2016-07-03T02:55:40.467Z,97.22
2016-07-03T02:56:40.464Z,97.31
2016-07-03T02:57:40.452Z,96.94
2016-07-03T02:58:40.450Z,96.94
2016-07-03T02:59:40.443Z,96.84
2016-07-03T03:00:40.445Z,97.22
2016-07-03T03:01:40.437Z,97.22
2016-07-03T03:02:40.433Z,97.13
2016-07-03T03:03:40.421Z,97.03
2016-07-03T03:04:40.419Z,97.31
2016-07-03T03:05:40.416Z,97.7
2016-07-03T03:06:40.457Z,97.31
2016-07-03T03:07:40.697Z,97.51
2016-07-03T03:08:40.403Z,97.51
2016-07-03T03:09:40.400Z,97.6
2016-07-03T03:10:40.887Z,97.51
2016-07-03T03:11:40.382Z,97.51
2016-07-03T03:12:40.379Z,97.7
2016-07-03T03:13:40.379Z,97.7
2016-07-03T03:14:40.376Z,97.51
2016-07-03T03:15:40.462Z,97.41
2016-07-03T03:16:40.356Z,97.51
2016-07-03T03:17:41.207Z,97.7
2016-07-03T03:19:40.336Z,97.6
2016-07-03T03:20:40.338Z,97.7
2016-07-03T03:21:40.332Z,97.89
2016-07-03T03:22:40.331Z,98.08
2016-07-03T03:23:40.324Z,97.79
2016-07-03T03:24:40.319Z,97.79
2016-07-03T03:25:40.316Z,97.6
2016-07-03T03:26:40.307Z,97.94
2016-07-03T03:27:40.298Z,97.41
2016-07-03T03:28:40.301Z,98.22
2016-07-03T03:29:40.295Z,98.03
2016-07-03T03:30:40.290Z,97.94
2016-07-03T03:31:40.283Z,98.36
2016-07-03T03:32:40.283Z,98.08
2016-07-03T03:33:42.003Z,98.36
2016-07-03T03:34:41.468Z,98.08
2016-07-03T03:35:40.265Z,98.61
2016-07-03T03:36:40.587Z,98.8
2016-07-03T03:37:40.303Z,98.8
2016-07-03T03:38:40.252Z,98.85
2016-07-03T03:39:40.248Z,98.75
2016-07-03T03:40:40.239Z,98.52
2016-07-03T03:41:40.231Z,98.52
2016-07-03T03:42:40.228Z,97.99
2016-07-03T03:43:40.343Z,98.08
2016-07-03T03:44:40.348Z,98.61
2016-07-03T03:45:41.012Z,98.28
2016-07-03T03:46:40.228Z,98.09
2016-07-03T03:47:40.228Z,97.71
2016-07-03T03:48:40.222Z,96.89
2016-07-03T03:49:40.425Z,96.89
2016-07-03T03:50:40.213Z,96.84
2016-07-03T03:51:40.211Z,96.37
2016-07-03T03:52:40.217Z,96.42
2016-07-03T03:53:40.203Z,95.36
2016-07-03T03:54:40.207Z,95.89
2016-07-03T03:55:40.205Z,95.31
2016-07-03T03:56:40.212Z,94.79
2016-07-03T03:57:40.214Z,94.84
2016-07-03T03:58:40.206Z,94.26
2016-07-03T03:59:40.208Z,93.73
2016-07-03T04:00:40.204Z,93.1
2016-07-03T04:01:40.204Z,93.01
2016-07-03T04:02:40.205Z,92.38
2016-07-03T04:03:40.202Z,91.9
2016-07-03T04:04:40.209Z,90.89
2016-07-03T04:05:40.206Z,91.52
2016-07-03T04:06:40.206Z,90.65
2016-07-03T04:07:40.211Z,90.02
2016-07-03T04:08:40.210Z,88.81
2016-07-03T04:09:40.210Z,88.53
2016-07-03T04:10:40.221Z,88.28
2016-07-03T04:11:40.218Z,88.47
2016-07-03T04:12:40.226Z,87.26
2016-07-03T04:13:40.222Z,87.07
2016-07-03T04:14:40.226Z,86.25
2016-07-03T04:15:40.228Z,85.96
2016-07-03T04:16:40.233Z,85.61
2016-07-03T04:17:40.234Z,85.85
2016-07-03T04:18:40.239Z,85.17
2016-07-03T04:19:40.249Z,84.16
2016-07-03T04:20:40.256Z,83.39
2016-07-03T04:21:40.252Z,83.23
2016-07-03T04:22:40.261Z,82.94
2016-07-03T04:23:40.268Z,82.21
2016-07-03T04:24:40.371Z,81.87
2016-07-03T04:25:40.272Z,80.8
2016-07-03T04:26:40.283Z,80.55
2016-07-03T04:27:40.291Z,79.68
2016-07-03T04:28:40.293Z,79.52
2016-07-03T04:29:40.303Z,78.56
2016-07-03T04:30:40.302Z,77.73
2016-07-03T04:31:40.310Z,77.44
2016-07-03T04:32:40.318Z,77.19
2016-07-03T04:33:40.327Z,76.6
2016-07-03T04:34:41.035Z,75.77
2016-07-03T04:35:40.345Z,75.96
2016-07-03T04:36:41.048Z,75.28
2016-07-03T04:37:55.253Z,74.64
2016-07-03T04:38:40.814Z,74.54
2016-07-03T04:39:40.368Z,73.61
2016-07-03T04:40:40.376Z,72.93
2016-07-03T04:41:40.393Z,72.58
2016-07-03T04:42:40.394Z,71.12
2016-07-03T04:43:40.409Z,70.87
2016-07-03T04:44:40.415Z,69.22
2016-07-03T04:45:40.430Z,67.5
2016-07-03T04:46:40.433Z,64.49
2016-07-03T04:47:40.443Z,62.48
2016-07-03T04:48:40.453Z,60.83
2016-07-03T04:49:40.456Z,58.98
2016-07-03T04:50:40.473Z,57.07
2016-07-03T04:52:40.486Z,53.79
2016-07-03T04:53:40.498Z,52.62
2016-07-03T04:54:41.359Z,51.67
2016-07-03T04:55:40.515Z,50.6
2016-07-03T04:56:40.523Z,49.85
2016-07-03T04:57:40.532Z,48.58
2016-07-03T04:58:40.591Z,47.42
2016-07-03T04:59:40.553Z,46.66
2016-07-03T05:00:40.564Z,45.68
2016-07-03T05:01:42.039Z,44.73
2016-07-03T05:02:40.583Z,44.05
2016-07-03T05:03:40.599Z,43.19
2016-07-03T05:04:40.966Z,42.32
2016-07-03T05:05:40.618Z,41.63
2016-07-03T05:06:40.624Z,40.97
2016-07-03T05:07:40.870Z,40.48
2016-07-03T05:08:40.642Z,40.19
2016-07-03T05:09:40.657Z,39.31
2016-07-03T05:10:40.666Z,39.02
2016-07-03T05:11:40.679Z,38.16
2016-07-03T05:12:40.686Z,37.77
2016-07-03T05:13:40.703Z,37.5
2016-07-03T05:14:40.710Z,37.11
2016-07-03T05:15:40.717Z,36.43
2016-07-03T05:16:40.732Z,36.24
2016-07-03T05:17:40.748Z,35.85
2016-07-03T05:18:40.755Z,35.27
2016-07-03T05:19:40.769Z,34.99
2016-07-03T05:20:40.786Z,34.11
2016-07-03T05:21:40.798Z,33.53
2016-07-03T05:22:40.801Z,33.34
2016-07-03T05:23:40.823Z,33.34
2016-07-03T05:24:40.835Z,32.86
2016-07-03T05:25:40.843Z,32.37
2016-07-03T05:26:40.857Z,31.99
2016-07-03T05:27:40.875Z,31.7
2016-07-03T05:28:40.879Z,31.51
2016-07-03T05:29:40.898Z,30.52
2016-07-03T05:30:40.903Z,30.52
2016-07-03T05:31:40.920Z,30.23
2016-07-03T05:32:40.930Z,30.15
2016-07-03T05:33:40.947Z,30.35
2016-07-03T05:34:40.959Z,29.58
2016-07-03T05:35:40.972Z,29.58
2016-07-03T05:36:40.986Z,28.99
2016-07-03T05:37:40.996Z,29.2
2016-07-03T05:38:41.005Z,28.51
2016-07-03T05:39:41.018Z,28.22
2016-07-03T05:40:41.040Z,27.84
2016-07-03T05:41:41.045Z,27.55
2016-07-03T05:42:41.066Z,27.64
2016-07-03T05:43:41.778Z,27.26
2016-07-03T05:44:41.795Z,26.97
2016-07-03T05:45:41.454Z,27.07
2016-07-03T05:46:41.724Z,26.48
2016-07-03T05:47:41.733Z,26.58
2016-07-03T05:48:41.397Z,25.99
2016-07-03T05:49:41.163Z,26.38
2016-07-03T05:50:41.174Z,25.81
2016-07-03T05:51:41.187Z,26
2016-07-03T05:52:41.704Z,25.51
2016-07-03T05:53:41.870Z,25.51
2016-07-03T05:54:41.682Z,25.22
2016-07-03T05:55:41.247Z,24.82
2016-07-03T05:56:41.410Z,24.63
2016-07-03T05:57:41.480Z,24.64
2016-07-03T05:58:41.292Z,24.25
2016-07-03T05:59:41.301Z,24.54
2016-07-03T06:00:41.328Z,24.25
2016-07-03T06:01:41.333Z,24.05
2016-07-03T06:02:41.355Z,23.77
2016-07-03T06:03:41.364Z,23.56
2016-07-03T06:04:41.386Z,22.78
2016-07-03T06:05:41.401Z,22.88
2016-07-03T06:06:41.411Z,22.77
2016-07-03T06:07:41.425Z,22.97
2016-07-03T06:08:41.448Z,22.97
2016-07-03T06:10:41.473Z,22.78
2016-07-03T06:11:43.100Z,22.39
2016-07-03T06:12:41.512Z,22.39
2016-07-03T06:13:42.090Z,22.5
2016-07-03T06:14:41.542Z,22.11
2016-07-03T06:15:42.153Z,21.52
2016-07-03T06:16:41.570Z,21.22
2016-07-03T06:17:41.583Z,21.53
2016-07-03T06:18:41.600Z,21.63
2016-07-03T06:19:41.832Z,20.64
2016-07-03T06:20:42.766Z,20.64
2016-07-03T06:21:41.651Z,19.37
2016-07-03T06:22:41.669Z,19.75
2016-07-03T06:23:41.682Z,20.43
2016-07-03T06:24:41.701Z,20.04
2016-07-03T06:25:41.728Z,20.04
2016-07-03T06:26:41.735Z,20.44
2016-07-03T06:27:41.761Z,20.24
2016-07-03T06:28:41.772Z,20.44
2016-07-03T06:29:41.787Z,19.96
2016-07-03T06:30:41.807Z,20.15
2016-07-03T06:31:41.819Z,19.96
2016-07-03T06:32:41.840Z,19.77
2016-07-03T06:33:41.853Z,19.38
2016-07-03T06:34:41.869Z,19.78
2016-07-03T06:35:41.890Z,19.29
2016-07-03T06:36:41.909Z,18.99
2016-07-03T06:37:41.923Z,19.49
2016-07-03T06:38:41.943Z,19.49
2016-07-03T06:39:41.956Z,18.8
2016-07-03T06:40:41.971Z,19.1
2016-07-03T06:41:41.992Z,19.2
2016-07-03T06:42:42.016Z,18.51
2016-07-03T06:43:42.033Z,18.62
2016-07-03T06:44:42.045Z,18.43
2016-07-03T06:45:42.070Z,17.94
2016-07-03T06:46:42.079Z,18.23
2016-07-03T06:47:42.106Z,18.13
2016-07-03T06:48:42.126Z,18.23
2016-07-03T06:49:42.138Z,18.13
2016-07-03T06:50:42.158Z,18.04
2016-07-03T06:51:42.179Z,17.64
2016-07-03T06:52:42.195Z,17.35
2016-07-03T06:53:42.216Z,16.55
2016-07-03T06:54:42.231Z,16.74
2016-07-03T06:55:42.253Z,17.03
2016-07-03T06:56:42.271Z,17.42
2016-07-03T06:57:42.290Z,17.03
2016-07-03T06:58:42.309Z,17.02
2016-07-03T06:59:42.325Z,17.02
2016-07-03T07:00:42.352Z,17.5
2016-07-03T07:01:42.820Z,17.71
2016-07-03T07:02:42.486Z,17.71
2016-07-03T07:03:42.405Z,17.71
2016-07-03T07:04:42.423Z,17.72
2016-07-03T07:05:42.845Z,17.82
2016-07-03T07:06:42.465Z,17.73
2016-07-03T07:07:42.482Z,17.83
2016-07-03T07:08:42.498Z,17.25
2016-07-03T07:09:42.524Z,17.16
2016-07-03T07:10:42.691Z,17.07
2016-07-03T07:11:42.557Z,16.88
2016-07-03T07:12:43.537Z,16.38
2016-07-03T07:13:42.602Z,16.68
2016-07-03T07:14:42.619Z,16.48
2016-07-03T07:15:42.642Z,16.39
2016-07-03T07:16:42.668Z,16.29
2016-07-03T07:17:42.683Z,15.89
2016-07-03T07:18:42.702Z,16
2016-07-03T07:19:42.720Z,15.89
2016-07-03T07:20:42.748Z,15.89
2016-07-03T07:21:42.772Z,15.8
2016-07-03T07:22:42.792Z,15.8
2016-07-03T07:23:42.807Z,15.31
2016-07-03T07:24:42.837Z,15.11
2016-07-03T07:25:42.851Z,15.51
2016-07-03T07:26:42.864Z,15.51
2016-07-03T07:27:42.892Z,14.62
2016-07-03T07:28:43.275Z,14.72
2016-07-03T07:29:42.932Z,15.01
2016-07-03T07:30:44.330Z,14.81
2016-07-03T07:31:42.973Z,14.32
2016-07-03T07:32:42.997Z,14.41
2016-07-03T07:33:43.608Z,14.21
2016-07-03T07:34:43.045Z,14.8
2016-07-03T07:35:43.064Z,14.42
2016-07-03T07:36:43.086Z,14.42
2016-07-03T07:37:44.577Z,14.42
2016-07-03T07:38:44.539Z,14.32
2016-07-03T07:39:43.177Z,13.73
2016-07-03T07:40:43.176Z,14.42
2016-07-03T07:41:43.188Z,13.93
2016-07-03T07:42:43.213Z,14.42
2016-07-03T07:43:43.231Z,14.31
2016-07-03T07:44:43.487Z,14.11
2016-07-03T07:45:43.278Z,14.01
2016-07-03T07:46:43.300Z,13.62
2016-07-03T07:47:43.322Z,13.92
2016-07-03T07:48:43.351Z,13.12
2016-07-03T07:49:43.369Z,13.23
2016-07-03T07:50:43.383Z,13.21
2016-07-03T07:51:43.404Z,13.12
2016-07-03T07:52:43.423Z,13.61
2016-07-03T07:53:43.449Z,13.51
2016-07-03T07:54:43.469Z,13.23
2016-07-03T07:55:43.489Z,13.12
2016-07-03T07:56:43.503Z,13.02
2016-07-03T07:57:43.528Z,13.52
2016-07-03T07:58:43.553Z,14.01
2016-07-03T07:59:43.571Z,13.7
2016-07-03T08:00:43.591Z,14.39
2016-07-03T08:01:43.611Z,14.48
2016-07-03T08:02:43.633Z,14.97
2016-07-03T08:03:43.648Z,14.97
2016-07-03T08:04:43.670Z,14.67
2016-07-03T08:05:43.689Z,14.97
2016-07-03T08:06:43.708Z,14.58
2016-07-03T08:07:43.718Z,14.29
2016-07-03T08:08:43.746Z,14.29
2016-07-03T08:09:43.764Z,13.6
2016-07-03T08:10:43.785Z,14.1
2016-07-03T08:11:43.803Z,13.61
2016-07-03T08:12:43.829Z,13.51
2016-07-03T08:13:43.847Z,13.61
2016-07-03T08:14:43.870Z,13.81
2016-07-03T08:15:43.887Z,13.51
2016-07-03T08:16:43.913Z,13.8
2016-07-03T08:17:43.927Z,13.9
2016-07-03T08:18:43.950Z,13.89
2016-07-03T08:20:43.986Z,12.81
2016-07-03T08:21:44.011Z,13.01
2016-07-03T08:22:44.026Z,13.01
2016-07-03T08:23:44.050Z,13.1
2016-07-03T08:24:44.071Z,13.59
2016-07-03T08:25:44.438Z,13.2
2016-07-03T08:26:44.210Z,13.2
2016-07-03T08:27:44.127Z,12.62
2016-07-03T08:28:45.204Z,12.91
2016-07-03T08:30:44.999Z,12.71
2016-07-03T08:31:44.214Z,11.92
2016-07-03T08:32:44.234Z,12.12
2016-07-03T08:33:44.709Z,12.21
2016-07-03T08:34:44.279Z,12.61
2016-07-03T08:35:44.296Z,12.31
2016-07-03T08:36:44.313Z,12.4
2016-07-03T08:37:44.334Z,12.6
2016-07-03T08:38:44.353Z,13.09
2016-07-03T08:39:44.372Z,13.18
2016-07-03T08:40:44.389Z,12.79
2016-07-03T08:41:44.406Z,13.57
2016-07-03T08:42:44.425Z,14.15
2016-07-03T08:43:44.438Z,14.53
2016-07-03T08:44:44.451Z,14.92
2016-07-03T08:45:44.474Z,15.1
2016-07-03T08:46:45.875Z,15.38
2016-07-03T08:47:45.107Z,15.57
2016-07-03T08:48:44.519Z,16.53
2016-07-03T08:49:44.538Z,16.82
2016-07-03T08:50:44.550Z,17.88
2016-07-03T08:51:44.562Z,17.88
2016-07-03T08:52:44.580Z,17.79
2016-07-03T08:53:44.666Z,17.98
2016-07-03T08:54:44.612Z,17.88
2016-07-03T08:55:44.631Z,18.26
2016-07-03T08:56:44.944Z,18.95
2016-07-03T08:57:46.113Z,18.65
2016-07-03T08:58:45.688Z,18.36
2016-07-03T08:59:44.673Z,18.16
2016-07-03T09:00:45.078Z,18.36
2016-07-03T09:01:44.816Z,18.16
2016-07-03T09:02:44.723Z,18.44
2016-07-03T09:03:44.730Z,18.74
2016-07-03T09:04:44.746Z,18.84
2016-07-03T09:05:44.761Z,19.12
2016-07-03T09:06:44.767Z,19.41
2016-07-03T09:07:44.784Z,19.6
2016-07-03T09:08:44.800Z,19.78
2016-07-03T09:09:44.807Z,20.07
2016-07-03T09:10:44.833Z,20.47
2016-07-03T09:11:44.833Z,20.75
2016-07-03T09:12:44.847Z,21.22
2016-07-03T09:13:44.854Z,21.51
2016-07-03T09:14:44.873Z,21.5
2016-07-03T09:15:44.879Z,21.22
2016-07-03T09:16:44.903Z,21.41
2016-07-03T09:17:44.900Z,21.79
2016-07-03T09:18:44.911Z,21.79
2016-07-03T09:19:44.922Z,22.17
2016-07-03T09:20:44.943Z,21.88
2016-07-03T09:21:44.940Z,22.65
2016-07-03T09:22:44.947Z,23.03
2016-07-03T09:23:44.963Z,23.22
2016-07-03T09:24:44.971Z,23.32
2016-07-03T09:25:44.980Z,23.32
2016-07-03T09:26:45.002Z,23.6
2016-07-03T09:27:44.999Z,23.5
2016-07-03T09:28:45.007Z,23.21
2016-07-03T09:29:45.023Z,23.79
2016-07-03T09:30:45.027Z,23.97
2016-07-03T09:31:45.040Z,24.17
2016-07-03T09:32:45.053Z,24.27
2016-07-03T09:33:45.058Z,24.06
2016-07-03T09:34:45.058Z,24.55
2016-07-03T09:35:45.072Z,24.35
2016-07-03T09:36:45.086Z,24.45
2016-07-03T09:37:45.092Z,24.55
2016-07-03T09:38:45.605Z,24.74
2016-07-03T09:40:45.119Z,25.89
2016-07-03T09:41:45.482Z,25.89
2016-07-03T09:42:45.130Z,26.38
2016-07-03T09:43:45.146Z,26.57
2016-07-03T09:44:45.156Z,26.48
2016-07-03T09:45:45.165Z,26.57
2016-07-03T09:46:45.163Z,26.38
2016-07-03T09:47:46.223Z,26.09
2016-07-03T09:48:45.438Z,26.56
2016-07-03T09:49:45.182Z,26.27
2016-07-03T09:50:45.745Z,26.56
2016-07-03T09:51:45.807Z,26.65
2016-07-03T09:52:45.212Z,26.46
2016-07-03T09:53:45.222Z,26.76
2016-07-03T09:54:45.218Z,26.67
2016-07-03T09:55:45.232Z,26.76
2016-07-03T09:56:45.241Z,26.2
2016-07-03T09:57:45.249Z,25.9
2016-07-03T09:58:45.250Z,26
2016-07-03T09:59:45.264Z,25.71
2016-07-03T10:00:45.273Z,25.62
2016-07-03T10:01:45.281Z,25.62
2016-07-03T10:02:45.295Z,25.62
2016-07-03T10:03:45.292Z,26
2016-07-03T10:04:45.302Z,25.81
2016-07-03T10:05:46.661Z,25.14
2016-07-03T10:06:45.318Z,24.95
2016-07-03T10:07:45.324Z,24.76
2016-07-03T10:08:45.335Z,24.85
2016-07-03T10:09:45.346Z,24.65
2016-07-03T10:10:45.499Z,24.35
2016-07-03T10:11:45.360Z,24.63
2016-07-03T10:12:45.362Z,24.83
2016-07-03T10:13:46.871Z,24.73
2016-07-03T10:14:45.379Z,25.21
2016-07-03T10:15:46.680Z,24.62
2016-07-03T10:16:45.394Z,24.72
2016-07-03T10:17:46.475Z,25.1
2016-07-03T10:18:45.510Z,25.4
2016-07-03T10:19:45.415Z,25.21
2016-07-03T10:20:45.425Z,25.41
2016-07-03T10:21:45.451Z,25.41
2016-07-03T10:22:45.435Z,25.03
2016-07-03T10:23:45.447Z,25.23
2016-07-03T10:24:45.455Z,25.32
2016-07-03T10:25:45.463Z,25.24
2016-07-03T10:26:45.472Z,24.56
2016-07-03T10:27:45.478Z,24.85
2016-07-03T10:28:45.485Z,24.66
2016-07-03T10:29:45.489Z,23.97
2016-07-03T10:30:45.503Z,24.65
2016-07-03T10:31:45.503Z,24.65
2016-07-03T10:32:46.114Z,24.76
2016-07-03T10:33:45.527Z,24.66
2016-07-03T10:34:45.530Z,24.76
2016-07-03T10:35:45.535Z,24.07
2016-07-03T10:36:45.542Z,24.38
2016-07-03T10:37:45.559Z,24.48
2016-07-03T10:38:45.560Z,24.28
2016-07-03T10:39:45.563Z,24.29
2016-07-03T10:40:45.572Z,24
2016-07-03T10:41:45.580Z,24.18
2016-07-03T10:42:45.588Z,24.28
2016-07-03T10:43:45.599Z,24.57
2016-07-03T10:44:45.615Z,24.27
2016-07-03T10:45:45.620Z,24.37
2016-07-03T10:46:45.619Z,24.37
2016-07-03T10:47:45.627Z,24.37
2016-07-03T10:48:45.628Z,24.07
2016-07-03T10:49:45.632Z,24.06
2016-07-03T10:50:45.643Z,24.55
2016-07-03T10:51:45.654Z,24.65
2016-07-03T10:52:45.653Z,25.21
2016-07-03T10:53:45.660Z,24.73
2016-07-03T10:54:45.673Z,25.12
2016-07-03T10:55:45.680Z,25.51
2016-07-03T10:56:46.186Z,25.88
2016-07-03T10:57:46.447Z,25.88
2016-07-03T10:58:45.753Z,25.59
2016-07-03T10:59:45.706Z,25.59
2016-07-03T11:00:45.714Z,25.3
2016-07-03T11:01:45.719Z,25.09
2016-07-03T11:02:45.728Z,25.19
2016-07-03T11:03:45.734Z,25.38
2016-07-03T11:04:45.737Z,25.19
2016-07-03T11:05:46.354Z,25.29
2016-07-03T11:07:00.648Z,25.09
2016-07-03T11:07:45.758Z,24.8
2016-07-03T11:08:45.770Z,24.61
2016-07-03T11:09:45.922Z,24.61
2016-07-03T11:10:45.778Z,24.61
2016-07-03T11:11:46.086Z,24.71
2016-07-03T11:12:45.793Z,24.72
2016-07-03T11:13:45.799Z,24.52
2016-07-03T11:14:45.803Z,24.41
2016-07-03T11:15:45.810Z,24.23
2016-07-03T11:16:45.820Z,24.32
2016-07-03T11:17:45.828Z,24.03
2016-07-03T11:18:45.828Z,23.93
2016-07-03T11:19:45.835Z,24.32
2016-07-03T11:20:45.841Z,24.61
2016-07-03T11:21:45.847Z,24.61
2016-07-03T11:22:46.842Z,24.12
2016-07-03T11:23:45.930Z,23.74
2016-07-03T11:24:45.865Z,24.03
2016-07-03T11:25:46.462Z,23.93
2016-07-03T11:26:45.873Z,24.32
2016-07-03T11:27:46.455Z,24.32
2016-07-03T11:28:45.895Z,24.12
2016-07-03T11:29:45.899Z,23.44
2016-07-03T11:30:45.907Z,23.35
2016-07-03T11:31:45.906Z,23.16
2016-07-03T11:33:47.482Z,23.25
2016-07-03T11:34:45.927Z,23.35
2016-07-03T11:35:47.008Z,23.16
2016-07-03T11:36:46.801Z,23.44
2016-07-03T11:37:45.945Z,23.35
2016-07-03T11:38:45.954Z,23.83
2016-07-03T11:39:45.956Z,23.43
2016-07-03T11:40:45.966Z,24.02
2016-07-03T11:41:45.976Z,23.82
2016-07-03T11:42:45.978Z,24.21
2016-07-03T11:43:45.983Z,24.02
2016-07-03T11:44:45.991Z,23.61
2016-07-03T11:45:45.994Z,23.63
2016-07-03T11:46:45.996Z,24.1
2016-07-03T11:47:46.005Z,24.1
2016-07-03T11:48:46.009Z,24.01
2016-07-03T11:49:46.013Z,24.1
2016-07-03T11:50:46.031Z,24.01
2016-07-03T11:51:46.026Z,24.19
2016-07-03T11:52:46.036Z,24.29
2016-07-03T11:53:46.035Z,24.49
2016-07-03T11:54:46.050Z,24.29
2016-07-03T11:55:46.047Z,24.49
2016-07-03T11:56:46.058Z,24.19
2016-07-03T11:57:46.062Z,24.19
2016-07-03T11:58:46.066Z,24.58
2016-07-03T11:59:46.073Z,24.48
2016-07-03T12:00:46.080Z,24.38
2016-07-03T12:01:46.084Z,24.18
2016-07-03T12:02:46.085Z,24.28
2016-07-03T12:03:46.098Z,24.18
2016-07-03T12:04:46.102Z,24.48
2016-07-03T12:05:46.105Z,24.58
2016-07-03T12:06:46.108Z,24.29
2016-07-03T12:07:46.114Z,24.29
2016-07-03T12:08:46.117Z,24.29
2016-07-03T12:09:46.225Z,24.29
2016-07-03T12:10:46.128Z,24.1
2016-07-03T12:11:46.134Z,24.39
2016-07-03T12:12:46.140Z,24.68
2016-07-03T12:13:46.145Z,24.78
2016-07-03T12:14:46.451Z,24.68
2016-07-03T12:15:46.606Z,24.68
2016-07-03T12:16:46.816Z,25.16
2016-07-03T12:17:46.714Z,25.26
2016-07-03T12:18:46.272Z,25.26
2016-07-03T12:20:01.071Z,25.16
2016-07-03T12:20:46.181Z,25.16
2016-07-03T12:21:46.181Z,25.16
2016-07-03T12:22:46.196Z,25.55
2016-07-03T12:23:46.193Z,25.65
2016-07-03T12:25:01.095Z,26.32
2016-07-03T12:25:46.206Z,26.72
2016-07-03T12:26:46.417Z,26.72
2016-07-03T12:27:46.473Z,26.61
2016-07-03T12:28:46.223Z,26.61
2016-07-03T12:29:46.231Z,26.7
2016-07-03T12:30:46.235Z,26.89
2016-07-03T12:31:46.237Z,26.79
2016-07-03T12:32:46.244Z,26.9
2016-07-03T12:33:46.246Z,26.51
2016-07-03T12:34:46.261Z,26.04
2016-07-03T12:35:46.258Z,25.73
2016-07-03T12:36:46.264Z,26.51
2016-07-03T12:37:46.266Z,26.51
2016-07-03T12:38:46.276Z,26.61
2016-07-03T12:39:46.279Z,26.89
2016-07-03T12:40:46.291Z,26.61
2016-07-03T12:41:46.291Z,26.61
2016-07-03T12:42:46.290Z,26.7
2016-07-03T12:43:47.777Z,26.61
2016-07-03T12:44:46.417Z,26.62
2016-07-03T12:45:46.899Z,26.42
2016-07-03T12:46:46.708Z,26.52
2016-07-03T12:47:46.329Z,26.53
2016-07-03T12:48:46.326Z,26.25
2016-07-03T12:49:46.330Z,25.85
2016-07-03T12:50:47.893Z,25.56
2016-07-03T12:51:47.521Z,25.76
2016-07-03T12:52:46.841Z,25.66
2016-07-03T12:53:46.351Z,25.18
2016-07-03T12:54:47.085Z,24.79
2016-07-03T12:55:46.367Z,25.27
2016-07-03T12:56:46.814Z,24.98
2016-07-03T12:57:46.377Z,25.66
2016-07-03T12:58:46.384Z,25.08
2016-07-03T12:59:46.392Z,25.37
2016-07-03T13:00:46.395Z,25.18
2016-07-03T13:01:46.402Z,24.97
2016-07-03T13:02:46.404Z,25.84